Time;durP1;ratioP1;P1;durP2;ratioP2;P2;SDS_P1;SDS_P2;PMS_P1;PMS_P2;Temp;Humidity;BMP_temperature;BMP_pressure;BME280_temperature;BME280_humidity;BME280_pressure;Samples;Min_cycle;Max_cycle;Signal;HPM_P1;HPM_P2
2022/01/15 00:02:58;;;;;;;16.50;5.90;;;;;;;3.89;67.55;99880.16;221579;1276;139820;-62
2022/01/15 00:08:03;;;;;;;20.90;6.40;;;;;;;3.78;67.56;99883.55;221375;1275;139129;-62
2022/01/15 00:13:13;;;;;;;18.20;6.90;;;;;;;3.75;67.79;99878.17;221319;1276;139359;-61
2022/01/15 00:18:17;;;;;;;21.30;5.80;;;;;;;3.77;67.86;99869.69;221343;1276;139624;-61
2022/01/15 00:23:20;;;;;;;17.00;6.70;;;;;;;3.75;68.03;99871.67;221543;1276;139026;-62
2022/01/15 00:28:23;;;;;;;17.50;7.10;;;;;;;3.73;67.94;99870.14;221348;1275;139044;-62
2022/01/15 00:33:29;;;;;;;20.50;6.40;;;;;;;3.67;67.88;99870.26;221227;1276;138576;-63
2022/01/15 00:38:32;;;;;;;;;;;;;;;3.63;67.90;99872.27;221133;1277;138612;-62
2022/01/15 00:43:35;;;;;;;20.90;6.90;;;;;;;3.58;68.00;99873.08;221441;1276;125044;-62
2022/01/15 00:48:38;;;;;;;16.00;6.60;;;;;;;3.55;68.10;99872.44;221299;1277;138948;-60
2022/01/15 00:53:41;;;;;;;22.60;7.30;;;;;;;3.56;67.93;99873.29;221090;1277;138912;-63
2022/01/15 00:58:44;;;;;;;19.00;6.50;;;;;;;3.57;68.11;99872.39;221317;1277;141967;-60
2022/01/15 01:03:49;;;;;;;18.10;7.10;;;;;;;3.55;68.07;99875.77;221345;1277;138843;-64
2022/01/15 01:08:52;;;;;;;18.30;6.90;;;;;;;3.50;67.91;99878.86;221223;1277;138933;-61
2022/01/15 01:24:29;;;;;;;19.80;7.10;;;;;;;3.35;67.86;99887.05;221257;1275;140181;-63
2022/01/15 01:34:50;;;;;;;21.90;7.70;;;;;;;3.39;67.89;99903.45;221413;1276;139937;-63
2022/01/15 01:40:07;;;;;;;23.90;8.30;;;;;;;3.34;67.71;99905.48;221299;1277;139868;-63
2022/01/15 01:45:13;;;;;;;28.40;8.30;;;;;;;3.30;68.02;99903.98;221394;1277;138784;-63
2022/01/15 01:50:25;;;;;;;20.20;7.30;;;;;;;3.29;67.88;99907.48;221336;1276;139292;-61
2022/01/15 01:55:28;;;;;;;20.90;8.10;;;;;;;3.24;67.83;99903.38;221350;1277;139109;-63
2022/01/15 02:00:31;;;;;;;16.00;7.30;;;;;;;3.15;67.65;99901.45;221377;1276;139439;-63
2022/01/15 02:05:35;;;;;;;18.40;7.40;;;;;;;3.11;67.78;99900.81;221356;1276;140315;-58
2022/01/15 02:10:38;;;;;;;20.30;8.00;;;;;;;3.16;67.86;99905.46;221367;1276;139919;-63
2022/01/15 02:15:41;;;;;;;20.70;7.80;;;;;;;3.12;67.79;99911.15;221184;1276;139487;-64
2022/01/15 02:25:51;;;;;;;;;;;;;;;3.04;67.72;99913.90;221374;1275;139785;-63
2022/01/15 02:30:57;;;;;;;19.20;7.00;;;;;;;2.99;67.65;99913.98;221388;1276;125456;-59
2022/01/15 02:36:04;;;;;;;21.40;7.40;;;;;;;2.94;67.56;99916.00;221504;1276;140799;-62
2022/01/15 02:41:08;;;;;;;21.60;7.90;;;;;;;2.91;67.49;99915.70;221096;1276;140198;-60
2022/01/15 02:46:45;;;;;;;15.70;6.40;;;;;;;2.88;67.34;99907.51;221303;1276;139914;-61
2022/01/15 02:51:46;;;;;;;15.20;7.10;;;;;;;2.88;67.44;99914.53;221313;1276;141230;-64
2022/01/15 02:56:49;;;;;;;17.90;7.30;;;;;;;2.87;67.63;99924.52;221181;1276;139164;-62
2022/01/15 03:01:52;;;;;;;21.90;8.00;;;;;;;2.81;67.27;99926.91;221479;1276;139793;-62
2022/01/15 03:06:55;;;;;;;21.50;7.50;;;;;;;2.70;67.30;99931.27;221450;1276;139360;-63
2022/01/15 03:12:02;;;;;;;22.70;8.10;;;;;;;2.62;67.40;99928.77;221210;1275;139267;-61
2022/01/15 03:17:05;;;;;;;18.60;8.20;;;;;;;2.57;67.47;99925.52;221484;1274;139643;-57
2022/01/15 03:22:16;;;;;;;26.70;8.30;;;;;;;2.55;67.53;99922.59;221298;1276;139296;-64
2022/01/15 03:27:23;;;;;;;17.60;7.10;;;;;;;2.54;67.68;99926.80;221386;1277;140447;-64
2022/01/15 03:32:26;;;;;;;18.70;8.10;;;;;;;2.53;67.59;99931.38;221263;1276;139091;-62
2022/01/15 03:37:29;;;;;;;20.30;7.30;;;;;;;2.46;67.52;99928.84;221215;1276;140504;-62
2022/01/15 03:42:32;;;;;;;22.50;7.40;;;;;;;2.39;67.72;99932.46;221355;1276;139302;-62
2022/01/15 03:47:35;;;;;;;18.80;7.00;;;;;;;2.34;67.72;99932.17;221420;1276;138722;-60
2022/01/15 03:52:39;;;;;;;22.10;7.10;;;;;;;2.27;67.73;99934.36;221409;1276;139781;-63
2022/01/15 03:57:42;;;;;;;24.30;7.00;;;;;;;2.26;67.86;99935.45;220999;1277;139521;-60
2022/01/15 04:02:46;;;;;;;16.70;6.70;;;;;;;2.27;67.90;99936.31;221051;1277;140282;-64
2022/01/15 04:07:50;;;;;;;19.50;7.00;;;;;;;2.31;67.92;99940.45;221218;1277;140470;-61
2022/01/15 04:12:53;;;;;;;25.00;7.70;;;;;;;2.33;68.07;99938.48;221273;1276;138600;-62
2022/01/15 04:17:56;;;;;;;19.90;7.60;;;;;;;2.33;67.95;99941.12;221240;1276;139295;-63
2022/01/15 04:22:59;;;;;;;21.90;7.40;;;;;;;2.29;67.95;99945.03;221261;1276;140106;-59
2022/01/15 04:28:07;;;;;;;21.60;7.90;;;;;;;2.17;67.86;99944.83;221364;1277;139216;-60
2022/01/15 04:33:10;;;;;;;22.70;8.10;;;;;;;2.11;68.05;99947.36;221172;1276;140134;-61
2022/01/15 04:38:14;;;;;;;19.90;7.40;;;;;;;2.10;68.01;99947.71;221231;1276;140589;-63
2022/01/15 04:43:17;;;;;;;20.60;7.00;;;;;;;2.14;68.10;99952.06;221247;1276;139764;-58
2022/01/15 04:48:20;;;;;;;22.30;7.60;;;;;;;2.12;67.95;99954.17;221370;1277;139488;-64
2022/01/15 04:53:23;;;;;;;27.60;8.80;;;;;;;2.09;67.93;99955.63;221154;1276;138601;-63
2022/01/15 04:58:27;;;;;;;28.70;9.50;;;;;;;2.05;68.09;99954.63;221295;1276;138778;-60
2022/01/15 05:03:32;;;;;;;28.50;10.50;;;;;;;2.03;68.15;99953.77;221249;1276;139369;-61
2022/01/15 05:08:35;;;;;;;28.70;10.00;;;;;;;1.98;68.10;99954.54;221491;1276;139987;-61
2022/01/15 05:13:39;;;;;;;25.70;9.50;;;;;;;1.95;68.24;99959.83;221271;1275;139200;-61
2022/01/15 05:18:42;;;;;;;24.60;10.10;;;;;;;1.97;68.21;99961.91;221253;1276;140081;-60
2022/01/15 05:23:45;;;;;;;23.90;9.20;;;;;;;1.97;68.38;99961.73;221293;1276;140772;-64
2022/01/15 05:28:48;;;;;;;20.90;9.70;;;;;;;1.96;68.28;99963.31;221552;1276;139768;-64
2022/01/15 05:33:52;;;;;;;23.60;9.90;;;;;;;1.90;68.29;99961.98;221316;1276;139015;-61
2022/01/15 05:38:55;;;;;;;21.30;9.30;;;;;;;1.85;68.28;99964.65;221185;1276;139462;-63
2022/01/15 05:44:01;;;;;;;21.50;7.50;;;;;;;1.81;68.35;99968.39;221261;1276;139966;-61
2022/01/15 05:49:04;;;;;;;19.90;8.20;;;;;;;1.80;68.35;99980.65;220490;1276;139184;-63
2022/01/15 05:54:10;;;;;;;20.10;8.00;;;;;;;1.80;68.32;99987.45;221362;1276;139454;-62
2022/01/15 05:59:13;;;;;;;18.80;8.70;;;;;;;1.78;68.53;99987.14;221445;1276;139011;-63
2022/01/15 06:04:16;;;;;;;20.70;8.10;;;;;;;1.77;68.53;99996.08;221373;1276;139044;-63
2022/01/15 06:09:19;;;;;;;20.50;8.70;;;;;;;1.72;68.53;99993.52;221337;1276;139472;-61
2022/01/15 06:14:22;;;;;;;21.70;8.90;;;;;;;1.71;68.45;100002.61;221300;1275;139268;-65
2022/01/15 06:19:26;;;;;;;21.70;8.30;;;;;;;1.70;68.50;99999.11;221250;1276;139096;-62
2022/01/15 06:24:29;;;;;;;24.90;8.60;;;;;;;1.65;68.47;99996.36;221264;1276;139489;-60
2022/01/15 06:29:32;;;;;;;20.90;8.60;;;;;;;1.64;68.45;99996.02;221445;1274;138926;-64
2022/01/15 06:34:35;;;;;;;18.70;8.40;;;;;;;1.62;68.50;100001.29;221331;1274;139637;-61
2022/01/15 06:39:39;;;;;;;23.00;9.00;;;;;;;1.59;68.47;100002.20;221314;1276;139382;-64
2022/01/15 06:44:42;;;;;;;21.20;8.00;;;;;;;1.60;68.65;99995.20;221097;1276;139742;-65
2022/01/15 06:49:45;;;;;;;18.20;7.30;;;;;;;1.60;68.60;99996.59;221296;1276;139845;-63
2022/01/15 06:54:48;;;;;;;20.10;8.40;;;;;;;1.60;68.71;100000.28;221330;1276;139818;-65
2022/01/15 06:59:51;;;;;;;27.80;9.70;;;;;;;1.61;68.69;100007.79;221351;1276;139579;-64
2022/01/15 07:04:54;;;;;;;19.70;8.50;;;;;;;1.59;68.67;100009.38;221590;1275;139710;-63
2022/01/15 07:09:58;;;;;;;18.20;7.80;;;;;;;1.59;68.70;100016.72;221256;1276;139815;-61
2022/01/15 07:15:01;;;;;;;22.60;9.40;;;;;;;1.61;68.78;100019.85;221261;1276;139929;-63
2022/01/15 07:20:04;;;;;;;24.60;9.80;;;;;;;1.67;68.98;100018.04;221277;1276;140174;-61
2022/01/15 07:25:08;;;;;;;22.10;9.80;;;;;;;1.71;68.80;100023.77;221170;1276;139453;-63
2022/01/15 07:30:13;;;;;;;26.70;10.30;;;;;;;1.75;68.86;100033.52;221004;1276;139688;-64
2022/01/15 07:35:17;;;;;;;18.70;9.30;;;;;;;1.81;68.96;100046.77;221414;1276;139246;-64
2022/01/15 07:40:20;;;;;;;25.80;9.40;;;;;;;1.84;68.78;100047.25;221361;1277;139861;-63
2022/01/15 07:45:23;;;;;;;23.50;9.40;;;;;;;1.92;68.93;100053.65;221287;1276;139852;-64
2022/01/15 07:50:26;;;;;;;24.90;8.80;;;;;;;2.00;68.80;100059.68;221274;1276;139893;-61
2022/01/15 07:55:30;;;;;;;28.40;9.30;;;;;;;2.04;68.82;100060.00;221222;1276;139367;-60
2022/01/15 08:00:37;;;;;;;27.80;9.80;;;;;;;2.08;68.69;100068.69;221169;1276;138942;-63
2022/01/15 08:05:40;;;;;;;26.40;8.70;;;;;;;2.15;68.64;100067.23;221334;1276;139629;-61
2022/01/15 08:10:44;;;;;;;20.50;7.90;;;;;;;2.15;68.46;100058.83;221357;1276;142061;-64
2022/01/15 08:15:47;;;;;;;18.30;8.00;;;;;;;2.20;68.38;100056.50;221273;1276;140295;-63
2022/01/15 08:20:50;;;;;;;22.20;9.00;;;;;;;2.25;68.37;100063.08;221332;1276;140775;-61
2022/01/15 08:25:53;;;;;;;24.10;9.90;;;;;;;2.29;68.38;100063.38;221217;1276;139418;-63
2022/01/15 08:30:56;;;;;;;26.30;9.30;;;;;;;2.35;68.38;100066.47;221247;1276;139714;-59
2022/01/15 08:35:59;;;;;;;22.20;8.50;;;;;;;2.36;68.17;100060.33;221245;1276;138787;-61
2022/01/15 08:41:02;;;;;;;24.20;7.80;;;;;;;2.43;68.11;100060.59;221486;1276;139467;-62
2022/01/15 08:46:05;;;;;;;18.00;7.80;;;;;;;2.54;68.33;100057.12;221284;1276;139438;-59
2022/01/15 08:51:08;;;;;;;22.20;8.20;;;;;;;2.65;68.09;100059.26;221221;1275;140442;-61
2022/01/15 08:56:11;;;;;;;21.70;8.40;;;;;;;2.75;68.00;100058.94;221233;1276;139075;-61
2022/01/15 09:01:15;;;;;;;18.00;7.90;;;;;;;2.81;67.73;100059.73;221324;1276;139857;-59
2022/01/15 09:06:18;;;;;;;19.70;8.20;;;;;;;2.80;67.38;100066.93;221294;1276;138923;-61
2022/01/15 09:11:21;;;;;;;21.40;8.30;;;;;;;2.80;67.30;100061.66;221152;1276;139658;-57
2022/01/15 09:16:24;;;;;;;23.60;8.40;;;;;;;2.80;67.10;100057.81;221201;1276;139405;-61
2022/01/15 09:21:28;;;;;;;20.80;6.60;;;;;;;2.81;67.11;100058.48;221334;1276;140913;-61
2022/01/15 09:27:01;;;;;;;21.30;9.10;;;;;;;2.86;66.94;100054.40;221339;1276;139296;-60
2022/01/15 09:32:06;;;;;;;27.90;8.40;;;;;;;2.93;66.98;100058.67;221171;1275;139717;-60
2022/01/15 09:37:09;;;;;;;21.90;8.60;;;;;;;2.99;66.77;100058.08;221133;1276;139879;-60
2022/01/15 09:42:13;;;;;;;23.50;9.20;;;;;;;3.02;66.71;100046.46;221291;1275;139276;-59
2022/01/15 09:47:16;;;;;;;25.10;9.40;;;;;;;3.06;66.62;100049.71;221509;1274;139839;-62
2022/01/15 09:52:24;;;;;;;25.30;9.10;;;;;;;3.12;66.38;100047.37;221147;1275;140219;-60
2022/01/15 09:57:27;;;;;;;19.80;7.00;;;;;;;3.19;66.27;100048.11;221147;1276;138922;-60
2022/01/15 10:02:30;;;;;;;19.60;8.00;;;;;;;3.27;65.92;100039.41;221386;1275;139417;-61
2022/01/15 10:07:34;;;;;;;24.20;9.20;;;;;;;3.34;65.95;100036.14;221327;1275;139365;-59
2022/01/15 10:12:41;;;;;;;23.10;8.60;;;;;;;3.43;65.75;100032.84;221166;1274;139013;-60
2022/01/15 10:17:44;;;;;;;23.80;8.80;;;;;;;3.53;65.70;100034.60;221423;1275;138865;-59
2022/01/15 10:22:50;;;;;;;19.00;8.30;;;;;;;3.65;65.44;100044.20;221298;1276;141265;-60
2022/01/15 10:27:55;;;;;;;20.80;8.20;;;;;;;3.80;65.40;100043.91;221344;1276;139178;-60
2022/01/15 10:33:08;;;;;;;25.00;9.90;;;;;;;3.97;65.00;100041.86;221170;1276;139505;-62
2022/01/15 10:38:16;;;;;;;21.50;8.80;;;;;;;4.12;64.80;100044.73;221283;1275;139292;-61
2022/01/15 10:43:29;;;;;;;22.20;8.80;;;;;;;4.24;64.43;100048.19;221234;1276;139073;-61
2022/01/15 10:48:34;;;;;;;22.70;8.60;;;;;;;4.36;64.01;100044.08;221267;1276;140042;-61
2022/01/15 10:53:44;;;;;;;20.90;8.00;;;;;;;4.44;63.75;100053.39;221210;1276;139355;-59
2022/01/15 10:58:47;;;;;;;15.90;7.50;;;;;;;4.63;63.83;100053.17;221364;1275;140856;-61
2022/01/15 11:03:50;;;;;;;16.30;6.80;;;;;;;4.76;63.31;100054.48;221509;1276;138851;-60
2022/01/15 11:08:53;;;;;;;18.30;6.50;;;;;;;4.75;62.88;100049.23;221351;1276;139200;-59
2022/01/15 11:13:56;;;;;;;16.70;6.00;;;;;;;4.72;62.38;100044.35;221241;1276;140024;-58
2022/01/15 11:19:01;;;;;;;18.10;5.60;;;;;;;4.66;61.66;100054.15;221264;1276;141073;-59
2022/01/15 11:24:06;;;;;;;19.30;5.50;;;;;;;4.61;61.71;100042.85;221341;1276;138920;-62
2022/01/15 11:29:10;;;;;;;16.30;5.40;;;;;;;4.63;61.48;100030.85;221484;1276;139628;-60
2022/01/15 11:34:16;;;;;;;18.70;5.70;;;;;;;4.67;61.39;100029.36;221109;1276;233426;-60
2022/01/15 11:39:28;;;;;;;14.50;5.50;;;;;;;4.69;61.18;100021.75;221076;1276;139056;-59
2022/01/15 11:44:33;;;;;;;20.30;5.40;;;;;;;4.69;61.04;100027.73;221291;1276;139050;-62
2022/01/15 11:49:45;;;;;;;18.60;6.10;;;;;;;4.72;60.90;100020.27;221229;1276;140018;-58
2022/01/15 11:54:50;;;;;;;17.00;5.40;;;;;;;4.76;60.51;100025.98;221297;1276;139858;-60
2022/01/15 11:59:55;;;;;;;15.90;5.60;;;;;;;4.77;60.57;100028.26;221295;1276;139016;-60
2022/01/15 12:05:17;;;;;;;15.00;6.20;;;;;;;4.82;60.43;100028.48;221488;1276;139529;-59
2022/01/15 12:10:20;;;;;;;13.30;5.10;;;;;;;4.82;60.25;100016.55;221315;1276;138967;-61
2022/01/15 12:15:28;;;;;;;20.90;7.20;;;;;;;4.90;60.02;100021.64;221339;1276;139361;-60
2022/01/15 12:20:36;;;;;;;20.30;6.80;;;;;;;4.87;60.07;100019.23;220968;1276;139312;-58
2022/01/15 12:25:39;;;;;;;19.80;6.50;;;;;;;4.88;59.92;100010.60;221103;1276;139356;-59
2022/01/15 12:30:50;;;;;;;17.50;5.50;;;;;;;4.93;59.73;100011.88;221219;1276;140136;-60
2022/01/15 12:35:58;;;;;;;17.80;6.40;;;;;;;4.90;59.40;100005.10;221007;1276;138833;-60
2022/01/15 12:41:06;;;;;;;20.20;7.70;;;;;;;4.90;59.59;100008.61;221227;1276;139779;-60
2022/01/15 12:46:16;;;;;;;18.20;6.60;;;;;;;4.97;59.44;100004.23;221216;1276;138781;-61
2022/01/15 12:51:21;;;;;;;23.80;5.50;;;;;;;5.09;59.43;100009.91;221140;1276;139167;-59
2022/01/15 12:56:26;;;;;;;21.20;6.10;;;;;;;5.29;59.28;100005.55;221298;1276;139505;-60
2022/01/15 13:01:31;;;;;;;18.20;7.30;;;;;;;5.46;59.14;100004.44;221168;1276;140721;-60
2022/01/15 13:06:34;;;;;;;25.90;6.60;;;;;;;5.57;58.45;99992.54;221449;1276;139978;-57
2022/01/15 13:11:39;;;;;;;19.00;6.00;;;;;;;5.58;58.34;99991.28;221268;1276;138711;-59
2022/01/15 13:16:42;;;;;;;15.20;6.30;;;;;;;5.55;58.09;99997.50;221284;1276;138907;-60
2022/01/15 13:21:46;;;;;;;14.90;6.10;;;;;;;5.52;57.94;100000.23;221132;1276;139898;-61
2022/01/15 13:26:49;;;;;;;21.80;6.50;;;;;;;5.45;57.74;100007.45;221397;1276;139579;-60
2022/01/15 13:31:52;;;;;;;21.90;7.10;;;;;;;5.36;57.80;100012.44;221104;1275;139911;-58
2022/01/15 13:37:09;;;;;;;22.30;7.30;;;;;;;5.28;57.52;100014.38;221266;1276;138807;-60
2022/01/15 13:42:18;;;;;;;19.60;6.50;;;;;;;5.22;57.41;100015.40;221384;1275;139411;-57
2022/01/15 13:47:21;;;;;;;18.20;6.30;;;;;;;5.27;57.59;100021.98;221379;1277;140209;-60
2022/01/15 13:57:51;;;;;;;19.00;7.00;;;;;;;5.41;57.48;100024.27;221280;1276;139130;-61
2022/01/15 14:02:55;;;;;;;22.80;7.40;;;;;;;5.37;57.06;100024.52;221309;1277;139095;-59
2022/01/15 14:08:08;;;;;;;24.60;7.50;;;;;;;5.25;57.11;100026.25;221349;1276;139876;-57
2022/01/15 14:13:12;;;;;;;22.80;7.20;;;;;;;5.13;57.09;100028.28;221089;1277;139203;-60
2022/01/15 14:18:19;;;;;;;25.00;7.70;;;;;;;5.05;57.24;100026.55;221049;1277;139434;-60
2022/01/15 14:23:34;;;;;;;24.00;8.50;;;;;;;4.97;56.97;100018.32;221458;1276;141892;-61
2022/01/15 14:28:37;;;;;;;19.80;7.70;;;;;;;4.89;56.77;100016.73;221367;1277;139408;-61
2022/01/15 14:33:48;;;;;;;24.90;7.70;;;;;;;4.82;57.01;100019.52;221316;1276;139436;-59
2022/01/15 14:38:51;;;;;;;28.30;8.90;;;;;;;4.74;57.11;100020.58;221193;1276;138888;-61
2022/01/15 14:43:53;;;;;;;26.90;9.00;;;;;;;4.66;57.12;100020.05;220764;1277;138848;-58
2022/01/15 14:48:57;;;;;;;20.70;8.30;;;;;;;4.55;57.03;100024.35;221354;1276;139649;-61
2022/01/15 14:54:00;;;;;;;29.50;8.60;;;;;;;4.47;57.09;100025.73;221249;1276;139039;-59
2022/01/15 14:59:03;;;;;;;22.60;8.00;;;;;;;4.39;57.45;100026.61;221346;1275;138946;-60
2022/01/15 15:04:06;;;;;;;21.60;8.00;;;;;;;4.34;57.73;100021.98;221234;1276;139426;-59
2022/01/15 15:09:10;;;;;;;23.30;7.70;;;;;;;4.30;57.37;100026.96;221325;1277;140845;-59
2022/01/15 15:14:13;;;;;;;20.70;7.80;;;;;;;4.24;57.29;100033.24;221142;1277;139661;-59
2022/01/15 15:19:16;;;;;;;21.90;8.20;;;;;;;4.18;57.52;100028.61;221366;1276;139867;-61
2022/01/15 15:24:19;;;;;;;27.80;8.90;;;;;;;4.10;57.61;100022.65;221392;1276;139664;-58
2022/01/15 15:29:22;;;;;;;27.80;9.20;;;;;;;4.00;57.51;100027.58;221417;1276;139508;-61
2022/01/15 15:34:26;;;;;;;24.20;9.50;;;;;;;3.91;57.82;100028.10;221118;1275;138971;-60
2022/01/15 15:39:29;;;;;;;26.90;9.80;;;;;;;3.83;58.32;100030.36;221299;1277;139326;-60
2022/01/15 15:44:32;;;;;;;31.70;10.50;;;;;;;3.75;58.58;100031.73;221356;1275;139238;-60
2022/01/15 15:49:35;;;;;;;28.50;9.70;;;;;;;3.69;58.71;100038.70;221213;1276;138948;-58
2022/01/15 15:54:38;;;;;;;26.70;10.00;;;;;;;3.60;59.16;100041.13;221359;1276;139469;-61
2022/01/15 15:59:44;;;;;;;35.10;11.00;;;;;;;3.53;59.19;100045.98;221471;1277;139421;-61
2022/01/15 16:04:47;;;;;;;29.10;10.60;;;;;;;3.47;59.27;100051.35;221382;1276;139575;-60
2022/01/15 16:09:51;;;;;;;34.80;11.20;;;;;;;3.38;59.60;100054.30;221199;1276;162360;-62
2022/01/15 16:14:54;;;;;;;29.10;11.40;;;;;;;3.31;59.83;100053.20;221127;1275;139259;-63
2022/01/15 16:19:57;;;;;;;31.40;11.50;;;;;;;3.28;59.92;100051.13;221421;1276;140048;-60
2022/01/15 16:25:01;;;;;;;36.10;13.20;;;;;;;3.24;60.21;100045.05;221265;1276;139403;-60
2022/01/15 16:30:05;;;;;;;42.50;13.50;;;;;;;3.19;60.43;100049.52;221310;1276;139109;-60
2022/01/15 16:35:09;;;;;;;35.30;13.10;;;;;;;3.16;60.51;100054.13;221453;1276;139424;-58
2022/01/15 16:40:12;;;;;;;33.40;12.00;;;;;;;3.13;60.43;100061.38;221341;1277;139445;-63
2022/01/15 16:45:18;;;;;;;44.70;14.80;;;;;;;3.08;60.71;100066.36;221326;1277;139417;-61
2022/01/15 16:50:21;;;;;;;36.10;15.70;;;;;;;3.05;60.73;100067.80;221252;1276;139860;-61
2022/01/15 16:55:24;;;;;;;41.80;15.70;;;;;;;3.00;60.74;100066.81;221335;1276;139866;-61
2022/01/15 17:00:27;;;;;;;39.50;16.20;;;;;;;2.96;60.91;100056.36;221512;1276;139504;-61
2022/01/15 17:05:30;;;;;;;41.10;16.30;;;;;;;2.93;61.03;100058.33;221317;1276;140738;-60
2022/01/15 17:10:33;;;;;;;38.30;17.10;;;;;;;2.90;61.05;100060.14;221236;1276;138687;-61
2022/01/15 17:15:37;;;;;;;46.20;17.90;;;;;;;2.88;61.14;100069.09;220975;1276;139282;-59
2022/01/15 17:20:44;;;;;;;43.20;18.00;;;;;;;2.85;61.22;100072.30;221407;1277;139286;-58
2022/01/15 17:25:47;;;;;;;52.20;18.90;;;;;;;2.79;61.11;100073.60;220763;1276;139544;-58
2022/01/15 17:30:50;;;;;;;45.60;18.60;;;;;;;2.72;61.36;100076.67;221319;1276;139494;-61
2022/01/15 17:35:53;;;;;;;51.10;18.80;;;;;;;2.70;61.58;100081.09;221183;1276;139447;-61
2022/01/15 17:40:56;;;;;;;50.70;19.00;;;;;;;2.68;61.68;100081.11;221419;1276;138946;-61
2022/01/15 17:46:02;;;;;;;51.30;19.70;;;;;;;2.66;61.92;100080.59;221284;1276;140517;-59
2022/01/15 17:51:05;;;;;;;54.30;21.70;;;;;;;2.63;61.86;100086.79;221202;1275;139231;-60
2022/01/15 17:56:08;;;;;;;59.40;21.80;;;;;;;2.65;61.94;100081.33;221264;1276;140379;-60
2022/01/15 18:01:12;;;;;;;51.30;21.70;;;;;;;2.70;62.28;100082.14;221147;1276;140186;-60
2022/01/15 18:06:16;;;;;;;57.60;21.60;;;;;;;2.73;62.28;100080.34;220946;1276;140176;-60
2022/01/15 18:11:21;;;;;;;57.80;21.50;;;;;;;2.72;62.26;100075.81;221410;1276;139667;-59
2022/01/15 18:16:25;;;;;;;50.60;22.90;;;;;;;2.70;62.15;100072.15;221276;1276;139012;-61
2022/01/15 18:21:28;;;;;;;56.30;21.70;;;;;;;2.63;62.46;100072.59;221304;1275;139392;-62
2022/01/15 18:26:35;;;;;;;56.70;21.70;;;;;;;2.57;62.49;100067.42;221184;1276;139857;-61
2022/01/15 18:31:39;;;;;;;56.10;23.00;;;;;;;2.47;62.60;100069.11;221103;1276;140479;-58
2022/01/15 18:36:43;;;;;;;64.90;24.00;;;;;;;2.41;62.68;100073.39;221183;1276;139132;-61
2022/01/15 18:41:46;;;;;;;54.60;24.20;;;;;;;2.32;62.89;100070.36;221346;1276;139353;-62
2022/01/15 18:46:49;;;;;;;64.30;26.60;;;;;;;2.24;63.00;100072.37;221192;1276;138937;-61
2022/01/15 18:51:53;;;;;;;72.30;28.90;;;;;;;2.17;63.11;100079.63;221253;1276;139404;-62
2022/01/15 18:56:56;;;;;;;70.70;29.20;;;;;;;2.16;63.36;100078.23;221258;1276;141088;-62
2022/01/15 19:02:02;;;;;;;74.50;29.40;;;;;;;2.15;63.49;100080.17;221165;1276;140638;-57
2022/01/15 19:07:05;;;;;;;65.60;28.40;;;;;;;2.19;63.74;100103.94;221251;1276;140139;-60
2022/01/15 19:12:08;;;;;;;65.20;28.00;;;;;;;2.18;63.93;100119.71;221236;1276;139030;-62
2022/01/15 19:17:11;;;;;;;73.50;32.80;;;;;;;2.13;63.92;100125.88;221290;1276;139772;-62
2022/01/15 19:22:15;;;;;;;78.60;33.20;;;;;;;2.06;63.91;100153.95;221203;1275;139791;-59
2022/01/15 19:27:18;;;;;;;72.70;35.50;;;;;;;1.96;64.04;100066.38;221084;1277;140406;-61
2022/01/15 19:32:23;;;;;;;87.70;36.90;;;;;;;1.90;64.23;100053.32;220725;1277;139937;-62
2022/01/15 19:37:26;;;;;;;82.70;36.50;;;;;;;1.85;64.20;100090.81;221122;1276;139348;-61
2022/01/15 19:42:30;;;;;;;84.40;35.50;;;;;;;1.80;64.41;100083.85;221247;1276;139955;-61
2022/01/15 19:47:33;;;;;;;81.30;37.20;;;;;;;1.74;64.59;100037.21;221378;1277;139747;-61
2022/01/15 19:52:36;;;;;;;85.50;36.10;;;;;;;1.73;64.59;100047.19;221002;1276;140176;-61
2022/01/15 19:57:40;;;;;;;87.80;36.10;;;;;;;1.74;64.81;100026.38;221282;1275;139903;-62
2022/01/15 20:02:44;;;;;;;90.20;36.70;;;;;;;1.75;64.94;100026.54;221267;1277;139341;-62
2022/01/15 20:07:51;;;;;;;88.30;37.70;;;;;;;1.78;65.06;100066.38;221264;1277;139403;-59
2022/01/15 20:12:57;;;;;;;93.70;37.50;;;;;;;1.79;65.02;100095.41;221227;1276;139309;-60
2022/01/15 20:18:01;;;;;;;83.50;35.30;;;;;;;1.76;65.05;100086.17;221466;1276;139600;-61
2022/01/15 20:23:04;;;;;;;81.50;36.10;;;;;;;1.73;65.07;100062.05;221077;1277;140919;-62
2022/01/15 20:28:07;;;;;;;74.40;33.80;;;;;;;1.68;65.18;100041.83;221189;1276;141214;-61
2022/01/15 20:33:11;;;;;;;80.80;35.40;;;;;;;1.68;65.26;100023.11;221017;1275;139375;-60
2022/01/15 20:38:14;;;;;;;81.60;35.30;;;;;;;1.65;65.25;100040.27;221055;1276;139791;-61
2022/01/15 20:43:17;;;;;;;91.90;37.30;;;;;;;1.60;65.31;100053.44;221122;1274;139967;-61
2022/01/15 20:48:20;;;;;;;84.90;35.90;;;;;;;1.61;65.38;100055.17;221276;1277;140029;-62
2022/01/15 20:53:24;;;;;;;83.00;36.50;;;;;;;1.66;65.53;100065.81;221305;1276;140984;-58
2022/01/15 20:58:27;;;;;;;89.40;37.40;;;;;;;1.67;65.48;100049.01;221074;1276;139727;-58
2022/01/15 21:03:31;;;;;;;88.50;38.60;;;;;;;1.68;65.52;100039.89;221495;1276;139436;-59
2022/01/15 21:08:34;;;;;;;83.60;37.80;;;;;;;1.70;65.67;100043.20;221315;1277;138739;-61
2022/01/15 21:13:37;;;;;;;76.00;36.00;;;;;;;1.69;65.61;100055.27;221256;1275;139516;-59
2022/01/15 21:18:41;;;;;;;81.70;36.50;;;;;;;1.67;65.62;100058.98;221277;1275;139297;-62
2022/01/15 21:23:44;;;;;;;79.80;35.90;;;;;;;1.63;65.58;100067.05;221207;1276;139998;-60
2022/01/15 21:28:48;;;;;;;83.10;35.80;;;;;;;1.58;65.56;100063.08;221287;1276;141792;-60
2022/01/15 21:33:51;;;;;;;83.70;36.50;;;;;;;1.51;65.56;100055.27;221221;1276;140649;-58
2022/01/15 21:38:55;;;;;;;84.10;36.80;;;;;;;1.46;65.76;100054.45;221173;1276;143903;-58
2022/01/15 21:43:58;;;;;;;80.50;35.40;;;;;;;1.45;65.86;100035.21;221181;1276;139942;-56
2022/01/15 21:49:18;;;;;;;76.10;35.60;;;;;;;1.49;65.95;100019.27;221326;1276;140511;-60
2022/01/15 21:54:24;;;;;;;87.90;36.20;;;;;;;1.50;65.98;100028.53;221143;1276;139080;-59
2022/01/15 21:59:27;;;;;;;82.50;35.10;;;;;;;1.51;66.04;100029.73;221324;1275;139806;-60
2022/01/15 22:04:30;;;;;;;83.60;36.40;;;;;;;1.46;66.03;100038.02;221305;1276;139355;-59
2022/01/15 22:09:34;;;;;;;77.20;35.90;;;;;;;1.40;66.14;100043.29;221337;1276;139192;-59
2022/01/15 22:14:37;;;;;;;85.70;36.20;;;;;;;1.35;65.94;100047.02;221278;1274;140206;-60
2022/01/15 22:19:40;;;;;;;79.20;36.60;;;;;;;1.27;66.09;100052.15;220941;1276;139406;-59
2022/01/15 22:24:43;;;;;;;85.10;35.70;;;;;;;1.23;66.13;100043.45;220985;1277;140373;-56
2022/01/15 22:29:46;;;;;;;79.20;32.70;;;;;;;1.20;66.26;100036.13;221419;1276;139907;-61
2022/01/15 22:35:10;;;;;;;79.80;34.10;;;;;;;1.19;66.32;100039.63;221203;1276;141102;-60
2022/01/15 22:40:14;;;;;;;74.80;31.80;;;;;;;1.17;66.49;100048.73;221073;1276;139519;-61
2022/01/15 22:45:22;;;;;;;77.20;34.80;;;;;;;1.12;66.57;100039.16;221097;1276;139733;-61
2022/01/15 22:50:25;;;;;;;77.90;34.80;;;;;;;1.10;66.61;100042.49;221297;1276;139346;-60
2022/01/15 22:55:29;;;;;;;82.00;35.90;;;;;;;1.06;66.70;100046.89;221304;1276;139320;-60
2022/01/15 23:00:39;;;;;;;84.50;35.20;;;;;;;1.04;66.73;100039.40;221328;1276;138941;-60
2022/01/15 23:05:44;;;;;;;78.40;35.90;;;;;;;1.03;66.76;100036.43;221437;1276;138700;-59
2022/01/15 23:11:06;;;;;;;85.40;36.50;;;;;;;1.00;66.80;100026.67;221275;1277;139772;-60
2022/01/15 23:21:33;;;;;;;81.40;33.20;;;;;;;0.97;66.81;100024.95;221150;1276;142411;-59
2022/01/15 23:26:37;;;;;;;68.90;31.40;;;;;;;0.95;67.03;100024.44;221324;1276;140341;-58
2022/01/15 23:31:40;;;;;;;74.90;31.00;;;;;;;0.94;67.02;100028.80;221297;1276;140339;-63
2022/01/15 23:36:43;;;;;;;63.50;28.90;;;;;;;0.93;67.21;100027.06;221193;1276;139617;-60